createdAt,value
2023-05-23T00:00:52.240Z,3.55
2023-05-23T00:03:25.550Z,4.50
2023-05-23T00:06:08.216Z,3.05
2023-05-23T00:08:44.438Z,3.42
2023-05-23T00:11:17.290Z,4.03
2023-05-23T00:13:46.551Z,3.75
2023-05-23T00:16:13.671Z,3.50
2023-05-23T00:18:45.764Z,4.78
2023-05-23T00:21:18.328Z,4.80
2023-05-23T00:23:45.447Z,4.10
2023-05-23T00:26:13.444Z,4.70
2023-05-23T00:28:45.949Z,4.05
2023-05-23T00:31:13.062Z,4.00
2023-05-23T00:33:40.164Z,3.90
2023-05-23T00:36:07.542Z,4.07
2023-05-23T00:38:37.770Z,4.05
2023-05-23T00:41:06.290Z,4.53
2023-05-23T00:43:33.452Z,4.95
2023-05-23T00:46:00.996Z,4.70
2023-05-23T00:48:29.389Z,5.00
2023-05-23T00:50:57.843Z,4.82
2023-05-23T00:53:25.690Z,5.55
2023-05-23T00:55:53.013Z,5.20
2023-05-23T00:58:20.558Z,4.88
2023-05-23T01:00:50.394Z,3.70
2023-05-23T01:03:18.524Z,2.78
2023-05-23T01:05:46.069Z,3.33
2023-05-23T01:08:15.633Z,3.83
2023-05-23T01:10:43.054Z,3.42
2023-05-23T01:13:20.648Z,3.30
2023-05-23T01:16:09.384Z,3.75
2023-05-23T01:18:59.258Z,3.47
2023-05-23T01:21:27.362Z,3.20
2023-05-23T01:24:22.177Z,3.35
2023-05-23T01:27:46.134Z,2.65
2023-05-23T01:30:13.689Z,3.17
2023-05-23T01:32:42.173Z,2.92
2023-05-23T01:35:11.016Z,3.10
2023-05-23T01:37:38.187Z,4.30
2023-05-23T01:40:05.965Z,4.43
2023-05-23T01:42:33.147Z,4.65
2023-05-23T01:45:00.568Z,4.28
2023-05-23T01:47:27.875Z,5.03
2023-05-23T01:49:57.067Z,4.22
2023-05-23T01:52:25.210Z,3.40
2023-05-23T01:54:53.130Z,3.78
2023-05-23T01:57:21.422Z,4.03
2023-05-23T01:59:50.406Z,4.43
2023-05-23T02:02:18.072Z,4.35
2023-05-23T02:04:45.458Z,5.60
2023-05-23T02:07:12.875Z,6.40
2023-05-23T02:09:40.138Z,6.45
2023-05-23T02:12:07.710Z,6.25
2023-05-23T02:14:34.933Z,6.20
2023-05-23T02:17:02.171Z,5.57
2023-05-23T02:19:30.237Z,5.95
2023-05-23T02:21:57.444Z,5.70
2023-05-23T02:24:24.981Z,5.80
2023-05-23T02:26:52.903Z,5.22
2023-05-23T02:31:47.325Z,4.40
2023-05-23T02:34:16.197Z,4.38
2023-05-23T02:36:44.409Z,5.60
2023-05-23T02:39:11.570Z,4.97
2023-05-23T02:41:38.906Z,4.95
2023-05-23T02:44:06.444Z,4.72
2023-05-23T02:46:34.925Z,4.18
2023-05-23T02:57:53.691Z,5.30
2023-05-23T03:00:24.180Z,5.35
2023-05-23T03:03:02.090Z,5.03
2023-05-23T03:05:32.472Z,5.38
2023-05-23T03:08:00.411Z,5.93
2023-05-23T03:12:56.019Z,5.18
2023-05-23T03:15:23.309Z,5.53
2023-05-23T03:17:50.909Z,5.25
2023-05-23T03:20:18.183Z,4.97
2023-05-23T03:22:45.911Z,4.78
2023-05-23T03:27:41.983Z,4.78
2023-05-23T03:30:11.080Z,4.88
2023-05-23T03:32:40.647Z,4.85
2023-05-23T03:35:08.902Z,4.75
2023-05-23T03:37:36.142Z,4.72
2023-05-23T03:40:03.884Z,4.88
2023-05-23T03:42:33.927Z,5.30
2023-05-23T03:45:02.252Z,5.53
2023-05-23T03:47:29.574Z,4.68
2023-05-23T03:49:58.962Z,4.47
2023-05-23T03:52:27.769Z,5.03
2023-05-23T03:54:54.980Z,4.90
2023-05-23T03:57:22.985Z,4.63
2023-05-23T03:59:52.089Z,4.53
2023-05-23T04:02:20.696Z,4.65
2023-05-23T04:04:48.002Z,4.47
2023-05-23T04:07:16.301Z,4.57
2023-05-23T04:09:44.623Z,4.40
2023-05-23T04:12:13.524Z,4.05
2023-05-23T04:14:40.884Z,4.45
2023-05-23T04:17:09.243Z,4.60
2023-05-23T04:19:37.139Z,4.47
2023-05-23T04:22:07.667Z,4.80
2023-05-23T04:24:35.821Z,6.10
2023-05-23T04:27:03.150Z,5.28
2023-05-23T04:29:31.776Z,5.45
2023-05-23T04:32:25.403Z,4.80
2023-05-23T04:34:53.547Z,4.88
2023-05-23T04:37:26.717Z,5.38
2023-05-23T04:39:54.584Z,4.68
2023-05-23T04:42:31.315Z,4.65
2023-05-23T04:45:30.855Z,4.97
2023-05-23T04:48:04.499Z,5.25
2023-05-23T04:50:43.673Z,6.10
2023-05-23T04:53:11.033Z,5.15
2023-05-23T04:55:39.323Z,6.00
2023-05-23T04:58:13.074Z,6.28
2023-05-23T05:00:40.464Z,5.97
2023-05-23T05:03:09.917Z,6.78
2023-05-23T05:05:41.040Z,6.65
2023-05-23T05:08:08.200Z,7.28
2023-05-23T05:10:36.142Z,7.40
2023-05-23T05:13:03.249Z,8.15
2023-05-23T05:15:37.999Z,7.93
2023-05-23T05:18:05.279Z,8.45
2023-05-23T05:20:32.542Z,7.85
2023-05-23T05:23:02.911Z,9.48
2023-05-23T05:25:32.323Z,9.27
2023-05-23T05:28:05.953Z,11.52
2023-05-23T05:30:40.584Z,10.05
2023-05-23T05:33:08.227Z,10.43
2023-05-23T05:35:35.765Z,10.77
2023-05-23T05:38:05.041Z,10.85
2023-05-23T05:43:00.731Z,11.32
2023-05-23T05:45:29.210Z,11.73
2023-05-23T05:47:56.834Z,11.95
2023-05-23T05:50:25.476Z,11.90
2023-05-23T05:52:52.887Z,12.27
2023-05-23T05:55:20.844Z,10.77
2023-05-23T05:57:52.416Z,10.95
2023-05-23T06:00:20.266Z,11.65
2023-05-23T06:02:47.825Z,10.45
2023-05-23T06:05:20.552Z,11.32
2023-05-23T06:07:49.951Z,11.07
2023-05-23T06:10:17.312Z,12.18
2023-05-23T06:12:45.945Z,13.32
2023-05-23T06:15:14.713Z,12.85
2023-05-23T06:17:43.012Z,14.52
2023-05-23T06:20:11.546Z,13.85
2023-05-23T06:22:42.709Z,13.63
2023-05-23T06:25:09.988Z,14.45
2023-05-23T06:27:38.186Z,15.13
2023-05-23T06:30:06.209Z,14.23
2023-05-23T06:32:33.734Z,14.55
2023-05-23T06:35:00.854Z,14.55
2023-05-23T06:37:27.950Z,15.40
2023-05-23T06:39:56.848Z,14.23
2023-05-23T06:42:23.943Z,15.10
2023-05-23T06:45:10.788Z,14.45
2023-05-23T06:47:38.439Z,14.50
2023-05-23T06:50:06.173Z,15.05
2023-05-23T06:55:01.017Z,13.23
2023-05-23T06:57:28.158Z,13.32
2023-05-23T06:59:55.337Z,13.90
2023-05-23T07:02:22.945Z,12.93
2023-05-23T07:04:50.768Z,13.30
2023-05-23T07:07:33.702Z,16.60
2023-05-23T07:10:00.918Z,13.32
2023-05-23T07:12:28.103Z,12.70
2023-05-23T07:15:03.026Z,11.52
2023-05-23T07:17:32.784Z,10.65
2023-05-23T07:20:01.533Z,11.88
2023-05-23T07:22:29.534Z,11.68
2023-05-23T07:24:57.648Z,11.30
2023-05-23T07:27:29.992Z,10.32
2023-05-23T07:29:57.638Z,11.57
2023-05-23T07:32:24.890Z,10.88
2023-05-23T07:34:53.360Z,11.48
2023-05-23T07:37:20.503Z,12.43
2023-05-23T07:39:47.662Z,11.07
2023-05-23T07:42:14.900Z,10.00
2023-05-23T07:44:42.606Z,10.32
2023-05-23T07:47:10.869Z,11.68
2023-05-23T07:49:38.042Z,11.55
2023-05-23T07:52:07.056Z,10.93
2023-05-23T07:54:35.476Z,11.60
2023-05-23T07:57:04.116Z,11.50
2023-05-23T07:59:31.731Z,11.40
2023-05-23T08:01:59.616Z,11.57
2023-05-23T08:04:29.114Z,11.77
2023-05-23T08:09:30.854Z,10.80
2023-05-23T08:11:58.668Z,11.50
2023-05-23T08:14:34.553Z,11.80
2023-05-23T08:17:17.507Z,11.95
2023-05-23T08:19:51.989Z,10.98
2023-05-23T08:22:19.654Z,11.18
2023-05-23T08:24:46.917Z,11.25
2023-05-23T08:29:42.935Z,11.32
2023-05-23T08:32:10.454Z,11.68
2023-05-23T08:34:37.650Z,10.43
2023-05-23T08:37:04.872Z,11.05
2023-05-23T08:39:32.197Z,11.40
2023-05-23T08:42:18.421Z,11.02
2023-05-23T08:44:51.310Z,11.15
2023-05-23T08:47:19.962Z,10.73
2023-05-23T08:49:55.077Z,10.77
2023-05-23T08:52:25.469Z,8.95
2023-05-23T08:54:55.386Z,8.82
2023-05-23T08:59:56.414Z,9.25
2023-05-23T09:02:24.941Z,9.32
2023-05-23T09:04:56.262Z,10.32
2023-05-23T09:07:26.025Z,11.30
2023-05-23T09:09:53.816Z,12.98
2023-05-23T09:12:23.769Z,15.23
2023-05-23T09:17:20.657Z,16.63
2023-05-23T09:19:48.468Z,17.75
2023-05-23T09:22:28.187Z,18.85
2023-05-23T09:25:05.510Z,19.10
2023-05-23T09:27:33.020Z,20.30
2023-05-23T09:30:05.832Z,20.10
2023-05-23T09:32:33.370Z,19.70
2023-05-23T09:35:04.215Z,20.90
2023-05-23T09:37:32.956Z,21.33
2023-05-23T09:40:01.817Z,19.52
2023-05-23T09:42:36.454Z,21.85
2023-05-23T09:45:04.944Z,19.63
2023-05-23T09:47:32.541Z,18.52
2023-05-23T09:49:59.724Z,15.98
2023-05-23T09:52:27.547Z,15.82
2023-05-23T09:54:54.781Z,14.05
2023-05-23T09:57:27.527Z,14.40
2023-05-23T10:00:01.185Z,13.97
2023-05-23T10:02:59.738Z,13.75
2023-05-23T10:05:42.417Z,14.23
2023-05-23T10:08:14.259Z,13.95
2023-05-23T10:10:56.723Z,12.43
2023-05-23T10:13:32.501Z,11.52
2023-05-23T10:16:15.077Z,9.88
2023-05-23T10:18:47.707Z,10.38
2023-05-23T10:21:25.854Z,9.00
2023-05-23T10:23:53.678Z,8.10
2023-05-23T10:28:49.996Z,7.53
2023-05-23T10:31:17.863Z,7.00
2023-05-23T10:34:01.263Z,8.15
2023-05-23T10:36:37.364Z,7.75
2023-05-23T10:39:26.083Z,7.88
2023-05-23T10:41:59.001Z,7.85
2023-05-23T10:44:31.133Z,7.78
2023-05-23T10:47:03.210Z,9.57
2023-05-23T10:49:47.626Z,9.25
2023-05-23T10:52:17.553Z,9.40
2023-05-23T10:54:48.594Z,8.70
2023-05-23T10:57:34.072Z,8.15
2023-05-23T11:00:01.781Z,8.30
2023-05-23T11:02:29.498Z,8.23
2023-05-23T11:07:46.357Z,7.95
2023-05-23T11:10:19.247Z,7.22
2023-05-23T11:12:46.391Z,7.82
2023-05-23T11:15:23.672Z,7.57
2023-05-23T11:17:52.454Z,7.85
2023-05-23T11:20:27.559Z,6.68
2023-05-23T11:23:05.498Z,7.20
2023-05-23T11:25:49.811Z,7.25
2023-05-23T11:28:22.491Z,7.07
2023-05-23T11:30:51.242Z,6.90
2023-05-23T11:33:20.913Z,7.25
2023-05-23T11:35:49.704Z,6.93
2023-05-23T11:38:17.446Z,7.38
2023-05-23T11:40:46.374Z,7.53
2023-05-23T11:43:19.874Z,7.53
2023-05-23T11:45:47.478Z,7.65
2023-05-23T11:48:18.263Z,7.00
2023-05-23T11:50:54.998Z,7.32
2023-05-23T11:53:25.320Z,6.85
2023-05-23T11:56:01.911Z,6.88
2023-05-23T11:58:33.170Z,6.90
2023-05-23T12:01:08.444Z,7.32
2023-05-23T12:03:52.008Z,7.70
2023-05-23T12:06:25.637Z,8.13
2023-05-23T12:08:52.970Z,7.68
2023-05-23T12:11:20.173Z,8.82
2023-05-23T12:13:47.338Z,7.53
2023-05-23T12:16:15.858Z,8.88
2023-05-23T12:18:43.550Z,9.88
2023-05-23T12:21:11.359Z,8.20
2023-05-23T12:23:39.759Z,7.72
2023-05-23T12:26:07.895Z,8.13
2023-05-23T12:28:45.082Z,7.40
2023-05-23T12:31:16.042Z,8.17
2023-05-23T12:33:48.205Z,8.05
2023-05-23T12:36:23.058Z,7.70
2023-05-23T12:38:53.773Z,7.35
2023-05-23T12:41:22.290Z,5.50
2023-05-23T12:43:54.915Z,5.70
2023-05-23T12:46:23.904Z,5.50
2023-05-23T12:48:51.854Z,5.50
2023-05-23T12:53:46.863Z,4.60
2023-05-23T12:56:14.500Z,4.72
2023-05-23T12:58:41.948Z,4.60
2023-05-23T13:01:09.253Z,4.63
2023-05-23T13:03:36.641Z,5.05
2023-05-23T13:06:04.092Z,4.43
2023-05-23T13:08:31.271Z,4.38
2023-05-23T13:10:59.319Z,4.95
2023-05-23T13:13:27.032Z,4.50
2023-05-23T13:15:54.461Z,4.05
2023-05-23T13:18:21.748Z,3.58
2023-05-23T13:20:49.053Z,4.03
2023-05-23T13:23:16.563Z,3.75
2023-05-23T13:25:54.350Z,4.10
2023-05-23T13:30:49.557Z,3.72
2023-05-23T13:35:47.952Z,3.65
2023-05-23T13:38:17.500Z,4.40
2023-05-23T13:40:50.494Z,4.07
2023-05-23T13:43:18.602Z,3.47
2023-05-23T13:45:47.590Z,3.63
2023-05-23T13:48:17.354Z,3.45
2023-05-23T13:50:45.306Z,3.65
2023-05-23T13:53:15.103Z,4.00
2023-05-23T13:55:51.813Z,4.10
2023-05-23T13:58:19.007Z,3.63
2023-05-23T14:00:55.339Z,3.97
2023-05-23T14:03:22.651Z,3.88
2023-05-23T14:05:49.980Z,4.43
2023-05-23T14:08:18.921Z,4.03
2023-05-23T14:10:46.051Z,3.85
2023-05-23T14:13:17.223Z,3.22
2023-05-23T14:15:54.090Z,2.92
2023-05-23T14:18:21.226Z,2.65
2023-05-23T14:20:48.304Z,2.22
2023-05-23T14:23:20.524Z,2.60
2023-05-23T14:25:47.602Z,2.30
2023-05-23T14:28:15.009Z,2.50
2023-05-23T14:30:42.252Z,2.40
2023-05-23T14:33:11.029Z,2.55
2023-05-23T14:35:39.825Z,2.80
2023-05-23T14:38:10.167Z,3.20
2023-05-23T14:40:39.888Z,4.60
2023-05-23T14:43:10.223Z,4.05
2023-05-23T14:45:40.683Z,5.68
2023-05-23T14:48:09.850Z,4.97
2023-05-23T14:50:46.449Z,4.90
2023-05-23T14:53:17.209Z,5.10
2023-05-23T14:55:44.748Z,4.97
2023-05-23T14:58:11.942Z,5.30
2023-05-23T15:00:40.936Z,5.07
2023-05-23T15:03:08.904Z,5.60
2023-05-23T15:05:48.965Z,5.25
2023-05-23T15:08:28.963Z,5.15
2023-05-23T15:10:56.045Z,5.75
2023-05-23T15:13:24.330Z,6.35
2023-05-23T15:15:52.043Z,5.45
2023-05-23T15:18:38.842Z,5.57
2023-05-23T15:21:07.674Z,5.85
2023-05-23T15:23:34.830Z,4.50
2023-05-23T15:26:05.065Z,4.85
2023-05-23T15:28:33.740Z,4.50
2023-05-23T15:31:06.660Z,4.60
2023-05-23T15:33:36.900Z,5.15
2023-05-23T15:36:04.332Z,4.88
2023-05-23T15:38:32.848Z,4.85
2023-05-23T15:41:00.332Z,4.45
2023-05-23T15:43:27.461Z,3.47
2023-05-23T15:45:55.058Z,3.88
2023-05-23T15:48:28.206Z,3.88
2023-05-23T15:50:55.324Z,4.50
2023-05-23T15:53:22.467Z,3.90
2023-05-23T15:55:50.956Z,3.92
2023-05-23T15:58:18.184Z,4.00
2023-05-23T16:00:51.196Z,3.95
2023-05-23T16:03:19.003Z,4.30
2023-05-23T16:08:13.473Z,4.38
2023-05-23T16:10:40.883Z,6.00
2023-05-23T16:13:09.188Z,6.25
2023-05-23T16:15:37.578Z,4.68
2023-05-23T16:18:05.034Z,5.32
2023-05-23T16:20:34.914Z,5.28
2023-05-23T16:23:02.276Z,4.57
2023-05-23T16:25:29.871Z,4.43
2023-05-23T16:27:57.487Z,4.50
2023-05-23T16:30:28.058Z,5.22
2023-05-23T16:32:55.378Z,5.63
2023-05-23T16:35:28.759Z,5.00
2023-05-23T16:37:56.449Z,5.15
2023-05-23T16:40:23.840Z,5.05
2023-05-23T16:42:51.052Z,5.50
2023-05-23T16:45:18.629Z,4.55
2023-05-23T16:47:45.912Z,5.00
2023-05-23T16:50:13.095Z,4.80
2023-05-23T16:52:40.505Z,4.97
2023-05-23T16:55:07.709Z,4.63
2023-05-23T16:57:34.822Z,4.95
2023-05-23T17:00:01.943Z,4.57
2023-05-23T17:02:29.082Z,4.28
2023-05-23T17:04:56.465Z,4.50
2023-05-23T17:07:23.591Z,3.92
2023-05-23T17:09:50.729Z,3.50
2023-05-23T17:12:17.847Z,3.75
2023-05-23T17:14:44.936Z,3.22
2023-05-23T17:17:12.007Z,3.70
2023-05-23T17:19:39.273Z,3.50
2023-05-23T17:22:07.795Z,4.07
2023-05-23T17:24:35.232Z,3.65
2023-05-23T17:27:04.534Z,3.33
2023-05-23T17:29:31.937Z,4.38
2023-05-23T17:31:59.315Z,4.28
2023-05-23T17:34:26.422Z,5.45
2023-05-23T17:36:53.551Z,3.28
2023-05-23T17:39:20.749Z,3.13
2023-05-23T17:41:48.021Z,2.58
2023-05-23T17:44:15.143Z,3.00
2023-05-23T17:46:42.438Z,2.57
2023-05-23T17:49:12.011Z,3.20
2023-05-23T17:51:39.213Z,3.08
2023-05-23T17:54:08.912Z,3.58
2023-05-23T17:56:36.189Z,3.92
2023-05-23T17:59:07.370Z,4.03
2023-05-23T18:01:34.545Z,4.18
2023-05-23T18:04:02.108Z,3.38
2023-05-23T18:06:29.277Z,4.57
2023-05-23T18:09:02.853Z,3.72
2023-05-23T18:11:30.411Z,3.90
2023-05-23T18:13:58.008Z,4.68
2023-05-23T18:16:25.365Z,4.35
2023-05-23T18:18:52.487Z,5.05
2023-05-23T18:21:19.788Z,4.88
2023-05-23T18:23:47.150Z,4.93
2023-05-23T18:26:17.452Z,5.63
2023-05-23T18:28:44.754Z,5.35
2023-05-23T18:31:11.896Z,4.53
2023-05-23T18:33:41.118Z,4.97
2023-05-23T18:36:12.975Z,5.22
2023-05-23T18:38:42.982Z,6.00
2023-05-23T18:41:13.919Z,5.57
2023-05-23T18:43:42.111Z,6.85
2023-05-23T18:46:09.699Z,7.85
2023-05-23T18:48:39.312Z,8.00
2023-05-23T18:51:09.280Z,7.03
2023-05-23T18:53:37.961Z,8.18
2023-05-23T18:56:08.769Z,8.38
2023-05-23T18:58:37.118Z,8.82
2023-05-23T19:01:04.384Z,8.48
2023-05-23T19:03:42.843Z,8.65
2023-05-23T19:06:12.589Z,10.50
2023-05-23T19:08:41.411Z,10.15
2023-05-23T19:11:10.848Z,10.32
2023-05-23T19:13:45.487Z,12.20
2023-05-23T19:16:13.753Z,12.07
2023-05-23T19:18:40.956Z,12.98
2023-05-23T19:21:08.532Z,13.48
2023-05-23T19:23:37.739Z,11.95
2023-05-23T19:26:13.862Z,12.90
2023-05-23T19:28:44.993Z,12.15
2023-05-23T19:31:15.256Z,12.45
2023-05-23T19:33:42.710Z,12.95
2023-05-23T19:36:09.859Z,13.05
2023-05-23T19:38:37.392Z,12.25
2023-05-23T19:41:05.329Z,12.60
2023-05-23T19:46:00.241Z,12.52
2023-05-23T19:48:27.545Z,11.00
2023-05-23T19:50:55.293Z,11.65
2023-05-23T19:53:23.012Z,11.80
2023-05-23T19:55:50.480Z,13.25
2023-05-23T19:58:19.773Z,11.88
2023-05-23T20:03:17.590Z,11.95
2023-05-23T20:05:45.929Z,12.38
2023-05-23T20:08:15.378Z,11.05
2023-05-23T20:10:44.873Z,11.00
2023-05-23T20:13:14.652Z,11.27
2023-05-23T20:15:42.552Z,10.95
2023-05-23T20:18:09.809Z,11.98
2023-05-23T20:20:36.959Z,11.00
2023-05-23T20:23:07.494Z,10.95
2023-05-23T20:25:35.087Z,10.65
2023-05-23T20:28:02.301Z,9.63
2023-05-23T20:30:29.468Z,12.30
2023-05-23T20:32:56.871Z,10.73
2023-05-23T20:35:24.163Z,11.25
2023-05-23T20:37:51.660Z,10.32
2023-05-23T20:40:19.373Z,10.02
2023-05-23T20:42:46.586Z,10.18
2023-05-23T20:45:13.934Z,10.00
2023-05-23T20:47:42.150Z,10.20
2023-05-23T20:50:10.672Z,9.68
2023-05-23T20:52:39.476Z,9.80
2023-05-23T20:55:07.555Z,9.60
2023-05-23T20:57:37.772Z,10.70
2023-05-23T21:00:12.606Z,10.15
2023-05-23T21:02:40.957Z,11.73
2023-05-23T21:05:09.631Z,8.88
2023-05-23T21:07:37.050Z,10.30
2023-05-23T21:10:04.663Z,10.25
2023-05-23T21:12:32.086Z,10.35
2023-05-23T21:14:59.301Z,10.25
2023-05-23T21:17:26.523Z,11.32
2023-05-23T21:19:53.761Z,10.52
2023-05-23T21:22:21.009Z,10.50
2023-05-23T21:24:48.353Z,11.32
2023-05-23T21:27:15.601Z,11.73
2023-05-23T21:29:43.110Z,10.10
2023-05-23T21:32:10.285Z,10.45
2023-05-23T21:34:37.363Z,10.93
2023-05-23T21:37:04.647Z,10.20
2023-05-23T21:39:47.029Z,10.18
2023-05-23T21:42:18.841Z,10.63
2023-05-23T21:44:46.205Z,9.52
2023-05-23T21:47:13.384Z,9.52
2023-05-23T21:49:40.809Z,8.18
2023-05-23T21:52:07.948Z,9.50
2023-05-23T21:54:35.178Z,9.57
2023-05-23T21:57:02.369Z,8.73
2023-05-23T21:59:29.516Z,9.45
2023-05-23T22:01:56.722Z,7.97
2023-05-23T22:04:23.962Z,8.80
2023-05-23T22:06:51.984Z,8.60
2023-05-23T22:09:19.285Z,7.30
2023-05-23T22:11:46.515Z,7.00
2023-05-23T22:14:13.605Z,6.20
2023-05-23T22:16:41.108Z,7.50
2023-05-23T22:19:10.349Z,6.15
2023-05-23T22:21:37.898Z,5.97
2023-05-23T22:24:05.374Z,5.57
2023-05-23T22:26:32.544Z,6.03
2023-05-23T22:28:59.610Z,6.10
2023-05-23T22:31:28.766Z,4.60
2023-05-23T22:33:56.454Z,5.25
2023-05-23T22:36:23.577Z,6.00
2023-05-23T22:38:50.828Z,5.10
2023-05-23T22:41:18.245Z,6.18
2023-05-23T22:43:45.685Z,6.18
2023-05-23T22:46:12.858Z,5.18
2023-05-23T22:48:39.958Z,4.43
2023-05-23T22:51:08.202Z,5.30
2023-05-23T22:53:35.357Z,5.28
2023-05-23T22:56:02.797Z,5.03
2023-05-23T22:58:29.958Z,5.22
2023-05-23T23:00:57.054Z,6.40
2023-05-23T23:03:24.278Z,5.07
2023-05-23T23:05:51.483Z,4.78
2023-05-23T23:08:19.502Z,5.50
2023-05-23T23:13:14.458Z,4.53
2023-05-23T23:15:42.981Z,5.35
2023-05-23T23:18:13.764Z,4.95
2023-05-23T23:20:41.650Z,4.93
2023-05-23T23:23:09.565Z,5.30
2023-05-23T23:25:37.090Z,4.60
2023-05-23T23:28:04.410Z,4.35
2023-05-23T23:30:31.939Z,4.32
2023-05-23T23:32:59.143Z,3.50
2023-05-23T23:35:26.445Z,5.35
2023-05-23T23:37:53.669Z,5.13
2023-05-23T23:40:20.943Z,4.20
2023-05-23T23:42:48.609Z,4.60
2023-05-23T23:45:16.228Z,4.03
2023-05-23T23:47:43.698Z,4.55
2023-05-23T23:52:44.414Z,4.25
2023-05-23T23:55:11.505Z,4.07
2023-05-23T23:57:38.580Z,4.85
